Lansing, Michigan
Current Conditions -  °F | °C
As of 5:53 PM on Wednesday 22 Oct 2014 (Local Time) from KLAN Reporting Station
Overcast Overcast  
Wind Chill: 47°   Ceiling: 2000
Heat Index: 47°   Visibility: 10mi
Dew Point: 38°   Wind: 3mph
Humidity: 71%   Direction: NA
Pressure: 30.33"   Gusts: NA
Location:  42.73°N, 84.55°W
Report Text: KLAN 222153Z VRB03KT 10SM OVC020 08/03 A3033 RMK AO2 SLP276 T00830033
Loading
Personal Weather Stations






























Interactive Weather Map
Tropical Storm Tracking
New forecast layout! Learn more

10-Day Weather Forecast

Advertisements
Track Severe Weather on mobile